Time;durP1;ratioP1;P1;durP2;ratioP2;P2;SDS_P1;SDS_P2;PMS_P1;PMS_P2;Temp;Humidity;BMP_temperature;BMP_pressure;BME280_temperature;BME280_humidity;BME280_pressure;Samples;Min_cycle;Max_cycle;Signal;HPM_P1;HPM_P2
2022/04/01 00:01:54;;;;;;;3.00;2.70;;;22.40;49.70;;;;;;5096532;28;20440;-84
2022/04/01 00:04:22;;;;;;;2.37;2.17;;;22.40;49.70;;;;;;5096622;28;20439;-84
2022/04/01 00:06:49;;;;;;;4.60;2.60;;;22.40;49.60;;;;;;5096865;28;20436;-88
2022/04/01 00:09:16;;;;;;;2.47;2.27;;;22.50;49.70;;;;;;5096502;28;20444;-88
2022/04/01 00:11:43;;;;;;;2.23;2.03;;;22.40;49.60;;;;;;5096288;28;20443;-84
2022/04/01 00:14:10;;;;;;;3.03;2.73;;;22.40;49.60;;;;;;5096897;28;20461;-86
2022/04/01 00:16:36;;;;;;;2.60;2.40;;;22.40;49.60;;;;;;5096216;28;20993;-84
2022/04/01 00:19:05;;;;;;;2.10;2.00;;;22.40;49.60;;;;;;5096399;28;20464;-88
2022/04/01 00:21:34;;;;;;;2.60;2.30;;;22.40;49.60;;;;;;5096240;28;20451;-84
2022/04/01 00:24:01;;;;;;;2.60;2.40;;;22.40;49.60;;;;;;5096388;28;20545;-84
2022/04/01 00:26:28;;;;;;;2.37;2.17;;;22.40;49.60;;;;;;5096476;28;20442;-88
2022/04/01 00:28:55;;;;;;;2.40;2.20;;;22.40;49.60;;;;;;5096142;28;20443;-84
2022/04/01 00:31:22;;;;;;;2.20;2.00;;;22.40;49.60;;;;;;5096052;28;20435;-85
2022/04/01 00:34:15;;;;;;;2.40;2.20;;;22.40;49.50;;;;;;5096114;28;20447;-88
2022/04/01 00:36:37;;;;;;;2.30;2.20;;;22.40;49.50;;;;;;5096137;28;20450;-89
2022/04/01 00:39:04;;;;;;;2.80;2.27;;;22.30;49.50;;;;;;5095801;28;20457;-88
2022/04/01 00:41:30;;;;;;;2.47;2.00;;;22.40;49.50;;;;;;5096166;28;20436;-87
2022/04/01 00:44:13;;;;;;;2.00;1.90;;;22.40;49.50;;;;;;5096043;28;20483;-89
2022/04/01 00:46:40;;;;;;;2.90;2.70;;;22.40;49.50;;;;;;5095658;28;20471;-89
2022/04/01 00:49:07;;;;;;;1.90;1.80;;;22.40;49.50;;;;;;5095874;28;20476;-86
2022/04/01 00:51:34;;;;;;;2.53;2.33;;;22.40;49.50;;;;;;5095735;28;20442;-85
2022/04/01 00:54:02;;;;;;;2.10;1.97;;;22.30;49.40;;;;;;5095534;28;20543;-85
2022/04/01 00:56:35;;;;;;;3.00;2.00;;;22.40;49.50;;;;;;5095637;28;20432;-88
2022/04/01 00:59:03;;;;;;;2.33;2.20;;;22.40;49.50;;;;;;5095477;28;20436;-88
2022/04/01 01:01:31;;;;;;;1.90;1.80;;;22.30;49.40;;;;;;5095732;28;20488;-89
2022/04/01 01:03:58;;;;;;;2.00;1.90;;;22.30;50.00;;;;;;5095538;28;21006;-89
2022/04/01 01:06:27;;;;;;;2.00;1.80;;;22.40;49.50;;;;;;5099262;28;20451;-88
2022/04/01 01:08:54;;;;;;;2.03;1.83;;;22.40;49.70;;;;;;5095322;28;20447;-89
2022/04/01 01:11:22;;;;;;;1.90;1.80;;;22.30;49.40;;;;;;5095514;28;20440;-85
2022/04/01 01:13:49;;;;;;;2.13;2.03;;;22.50;49.50;;;;;;5095445;28;20444;-88
2022/04/01 01:16:16;;;;;;;1.73;1.63;;;22.30;49.30;;;;;;5095100;28;20474;-89
2022/04/01 01:18:43;;;;;;;1.70;1.50;;;22.30;49.30;;;;;;5095585;28;20440;-85
2022/04/01 01:21:10;;;;;;;2.50;2.30;;;22.30;49.30;;;;;;5095294;28;20442;-85
2022/04/01 01:23:39;;;;;;;2.17;1.97;;;22.30;49.30;;;;;;5095183;28;21062;-89
2022/04/01 01:26:07;;;;;;;1.80;1.70;;;22.30;49.30;;;;;;5095135;28;20934;-89
2022/04/01 01:28:35;;;;;;;2.23;2.03;;;22.30;49.30;;;;;;5095193;28;20473;-89
2022/04/01 01:31:03;;;;;;;4.13;1.80;;;22.30;49.30;;;;;;5095021;28;20439;-87
2022/04/01 01:33:30;;;;;;;2.03;1.80;;;22.30;49.30;;;;;;5094979;28;20440;-85
2022/04/01 01:35:57;;;;;;;5.10;1.80;;;22.30;49.20;;;;;;5095056;28;20444;-88
2022/04/01 01:38:24;;;;;;;2.73;2.07;;;22.30;49.20;;;;;;5095065;28;20434;-88
2022/04/01 01:40:51;;;;;;;1.90;1.67;;;22.30;49.30;;;;;;5094958;28;20791;-87
2022/04/01 01:43:19;;;;;;;1.93;1.83;;;22.30;49.20;;;;;;5094535;28;20476;-89
2022/04/01 01:45:46;;;;;;;2.00;1.90;;;22.30;49.30;;;;;;5095754;28;20447;-87
2022/04/01 01:48:13;;;;;;;1.73;1.63;;;22.30;49.30;;;;;;5118795;28;20424;-84
2022/04/01 01:56:09;;;;;;;2.17;2.07;;;22.30;49.20;;;;;;5097689;28;20432;-88
2022/04/01 01:58:37;;;;;;;2.50;2.30;;;22.30;49.20;;;;;;5094794;28;20440;-88
2022/04/01 02:01:04;;;;;;;2.13;1.87;;;22.20;49.20;;;;;;5095033;28;20793;-88
2022/04/01 02:03:31;;;;;;;2.17;1.97;;;22.20;49.20;;;;;;5094341;28;20841;-88
2022/04/01 02:05:58;;;;;;;3.00;2.00;;;22.20;49.10;;;;;;5094284;28;20455;-87
2022/04/01 02:08:24;;;;;;;1.77;1.33;;;22.40;49.30;;;;;;5094400;28;20957;-87
2022/04/01 02:10:51;;;;;;;2.60;1.50;;;22.20;49.10;;;;;;5094422;28;20462;-85
2022/04/01 02:13:18;;;;;;;1.87;1.77;;;22.40;49.30;;;;;;5094505;28;20444;-88
2022/04/01 02:15:46;;;;;;;2.23;2.03;;;22.30;49.10;;;;;;5093966;28;20440;-87
2022/04/01 02:18:13;;;;;;;1.73;1.63;;;22.20;49.10;;;;;;5094129;28;20440;-84
2022/04/01 02:20:40;;;;;;;1.80;1.70;;;22.40;49.30;;;;;;5094442;28;21037;-89
2022/04/01 02:23:06;;;;;;;3.37;1.90;;;22.20;49.10;;;;;;5094301;28;20849;-89
2022/04/01 02:25:33;;;;;;;1.40;1.23;;;22.20;49.10;;;;;;5094174;28;20442;-88
2022/04/01 02:28:00;;;;;;;1.73;1.60;;;22.20;49.10;;;;;;5094240;28;20440;-88
2022/04/01 02:30:27;;;;;;;1.30;1.20;;;22.20;49.10;;;;;;5094395;28;20432;-87
2022/04/01 02:32:56;;;;;;;1.90;1.80;;;22.20;49.00;;;;;;5094171;28;20448;-85
2022/04/01 02:35:23;;;;;;;2.60;1.53;;;22.20;49.00;;;;;;5094148;28;20446;-88
2022/04/01 02:37:50;;;;;;;1.53;1.30;;;22.20;49.00;;;;;;5094193;28;20465;-89
2022/04/01 02:40:17;;;;;;;1.60;1.20;;;22.20;49.00;;;;;;5094493;28;20444;-89
2022/04/01 02:42:43;;;;;;;1.60;1.50;;;22.20;49.00;;;;;;5094195;28;20436;-88
2022/04/01 02:45:11;;;;;;;3.13;1.50;;;22.20;49.00;;;;;;5094400;28;20446;-87
2022/04/01 02:47:38;;;;;;;1.70;1.53;;;22.20;48.90;;;;;;5094563;28;20489;-88
2022/04/01 02:50:07;;;;;;;1.37;1.27;;;22.20;49.00;;;;;;5094165;28;20831;-84
2022/04/01 02:52:36;;;;;;;2.83;1.50;;;22.20;49.00;;;;;;5094007;28;20948;-84
2022/04/01 02:55:03;;;;;;;1.60;1.50;;;22.20;49.00;;;;;;5093979;28;20440;-84
2022/04/01 02:57:31;;;;;;;2.27;1.70;;;22.20;49.00;;;;;;5093965;28;20448;-89
2022/04/01 02:59:57;;;;;;;1.97;1.60;;;22.20;49.00;;;;;;5093813;28;20450;-88
2022/04/01 03:02:24;;;;;;;1.90;1.37;;;22.10;48.90;;;;;;5093761;28;20439;-85
2022/04/01 03:04:51;;;;;;;1.60;1.50;;;22.10;48.90;;;;;;5094024;28;20483;-88
2022/04/01 03:07:19;;;;;;;1.90;1.80;;;22.20;49.00;;;;;;5094009;28;20808;-88
2022/04/01 03:09:46;;;;;;;1.70;1.40;;;22.20;48.90;;;;;;5096202;28;20444;-88
2022/04/01 03:12:13;;;;;;;1.33;1.23;;;22.20;48.90;;;;;;5097895;28;20440;-85
2022/04/01 03:14:40;;;;;;;1.50;1.40;;;22.10;48.90;;;;;;5097945;28;20439;-88
2022/04/01 03:17:06;;;;;;;1.53;1.20;;;22.10;48.90;;;;;;5097578;28;20478;-88
2022/04/01 03:19:35;;;;;;;1.47;1.37;;;22.10;48.90;;;;;;5097757;28;20464;-85
2022/04/01 03:22:02;;;;;;;1.57;1.47;;;22.10;48.90;;;;;;5103310;28;20443;-85
2022/04/01 03:24:30;;;;;;;1.37;1.20;;;22.10;48.90;;;;;;5100727;28;20483;-89
2022/04/01 03:26:57;;;;;;;1.30;1.20;;;22.10;48.90;;;;;;5097454;28;20436;-88
2022/04/01 03:29:24;;;;;;;1.40;1.17;;;22.10;48.90;;;;;;5097464;28;20938;-85
2022/04/01 03:31:51;;;;;;;1.30;1.20;;;22.10;48.80;;;;;;5097397;28;20440;-87
2022/04/01 03:34:18;;;;;;;1.30;1.10;;;22.10;48.80;;;;;;5097342;28;20522;-87
2022/04/01 03:36:45;;;;;;;1.50;1.40;;;22.10;48.80;;;;;;5097115;28;20431;-88
2022/04/01 03:39:12;;;;;;;1.50;1.40;;;22.20;48.90;;;;;;5097209;28;20428;-86
2022/04/01 03:41:40;;;;;;;1.73;1.10;;;22.10;48.80;;;;;;5097276;28;20803;-88
2022/04/01 03:44:09;;;;;;;1.63;1.53;;;22.10;48.80;;;;;;5096970;28;20487;-86
2022/04/01 03:46:46;;;;;;;1.47;1.30;;;22.10;48.90;;;;;;5076646;28;20927;-86
2022/04/01 03:49:16;;;;;;;1.57;1.47;;;22.10;48.80;;;;;;5076735;28;20463;-85
2022/04/01 03:51:49;;;;;;;1.53;1.43;;;22.20;48.90;;;;;;5080930;28;20451;-90
2022/04/01 03:54:16;;;;;;;1.60;1.30;;;22.10;48.80;;;;;;5096943;28;20439;-87
2022/04/01 03:56:49;;;;;;;1.40;1.30;;;22.10;48.80;;;;;;5096626;28;20447;-83
2022/04/01 03:59:18;;;;;;;1.27;1.17;;;22.10;48.80;;;;;;5094467;28;20444;-87
2022/04/01 04:01:45;;;;;;;1.20;1.10;;;22.20;48.90;;;;;;5096824;28;20492;-87
2022/04/01 04:04:13;;;;;;;1.50;1.20;;;22.10;48.80;;;;;;5096587;28;20488;-83
2022/04/01 04:06:41;;;;;;;1.63;1.20;;;22.10;48.70;;;;;;5096751;28;20907;-83
2022/04/01 04:09:08;;;;;;;1.30;1.20;;;22.00;48.70;;;;;;5097045;28;20448;-88
2022/04/01 04:11:35;;;;;;;1.20;1.10;;;22.00;48.70;;;;;;5096391;28;20930;-86
2022/04/01 04:14:04;;;;;;;1.30;1.20;;;22.00;48.70;;;;;;5096281;28;20807;-83
2022/04/01 04:16:34;;;;;;;1.67;0.90;;;22.10;48.70;;;;;;5096217;28;20476;-85
2022/04/01 04:19:04;;;;;;;1.30;1.20;;;22.10;48.70;;;;;;5096458;28;20460;-88
2022/04/01 04:21:36;;;;;;;1.60;1.30;;;22.00;48.70;;;;;;5095118;28;20425;-88
2022/04/01 04:24:03;;;;;;;1.13;1.03;;;22.00;48.70;;;;;;5096374;28;20871;-85
2022/04/01 04:26:35;;;;;;;1.20;1.10;;;22.00;48.60;;;;;;5096617;28;20447;-83
2022/04/01 04:29:10;;;;;;;1.33;1.20;;;22.00;48.60;;;;;;5096411;28;20449;-88
2022/04/01 04:31:38;;;;;;;1.47;1.37;;;22.00;48.60;;;;;;5096120;28;20975;-84
2022/04/01 04:34:09;;;;;;;1.27;1.03;;;22.00;48.60;;;;;;5096104;28;20447;-88
2022/04/01 04:36:38;;;;;;;1.20;1.10;;;22.00;48.70;;;;;;5090431;28;20434;-83
2022/04/01 04:39:07;;;;;;;3.33;1.10;;;22.00;48.60;;;;;;5095696;28;20438;-83
2022/04/01 04:41:34;;;;;;;1.40;1.03;;;22.00;48.60;;;;;;5096164;28;20440;-84
2022/04/01 04:44:03;;;;;;;1.30;1.20;;;22.00;48.60;;;;;;5095835;28;20483;-88
2022/04/01 04:46:31;;;;;;;1.50;1.20;;;22.00;48.60;;;;;;5095669;28;20786;-88
2022/04/01 04:48:59;;;;;;;1.23;1.10;;;22.00;48.60;;;;;;5084636;28;20447;-85
2022/04/01 04:51:28;;;;;;;1.20;1.00;;;22.00;48.60;;;;;;5095331;28;20436;-84
2022/04/01 04:53:59;;;;;;;1.07;0.97;;;22.00;48.60;;;;;;5095506;28;20436;-88
2022/04/01 04:56:27;;;;;;;1.20;1.00;;;22.00;48.60;;;;;;5095743;28;20433;-87
2022/04/01 04:58:55;;;;;;;1.20;1.10;;;22.00;48.60;;;;;;5095369;28;20428;-86
2022/04/01 05:01:30;;;;;;;1.20;1.00;;;22.00;48.60;;;;;;5095235;28;20431;-84
2022/04/01 05:04:22;;;;;;;1.77;1.40;;;22.00;48.50;;;;;;5087487;28;20490;-88
2022/04/01 05:06:54;;;;;;;1.27;1.17;;;22.00;48.60;;;;;;5084430;28;20448;-89
2022/04/01 05:09:26;;;;;;;1.30;1.20;;;21.90;48.50;;;;;;5095323;28;20442;-89
2022/04/01 05:12:00;;;;;;;1.10;0.90;;;22.00;48.60;;;;;;5094640;28;20433;-89
2022/04/01 05:14:45;;;;;;;1.40;1.30;;;22.00;48.50;;;;;;5095161;28;20437;-88
2022/04/01 05:17:21;;;;;;;1.40;1.10;;;22.00;48.50;;;;;;5077562;28;20472;-85
2022/04/01 05:19:57;;;;;;;1.23;1.10;;;22.00;48.60;;;;;;5094614;28;20460;-85
2022/04/01 05:22:32;;;;;;;1.33;1.10;;;22.00;48.50;;;;;;5095020;28;20439;-85
2022/04/01 05:25:02;;;;;;;1.10;1.00;;;21.90;48.50;;;;;;5094831;28;20544;-85
2022/04/01 05:27:30;;;;;;;1.23;1.10;;;21.90;48.50;;;;;;5076661;28;20464;-85
2022/04/01 05:30:06;;;;;;;1.20;1.10;;;21.90;48.50;;;;;;5094916;28;20802;-85
2022/04/01 05:32:39;;;;;;;1.20;1.00;;;21.90;48.50;;;;;;5095245;28;20933;-88
2022/04/01 05:35:07;;;;;;;1.10;1.00;;;21.90;48.50;;;;;;5094912;28;20451;-85
2022/04/01 05:37:35;;;;;;;2.33;1.30;;;21.90;48.50;;;;;;5094932;28;20956;-85
2022/04/01 05:40:05;;;;;;;1.30;1.20;;;21.90;48.50;;;;;;5094751;28;20538;-85
2022/04/01 05:42:33;;;;;;;1.20;1.10;;;21.90;48.50;;;;;;5094961;28;20444;-88
2022/04/01 05:45:01;;;;;;;1.43;1.20;;;21.90;48.50;;;;;;5094714;28;20487;-87
2022/04/01 05:47:30;;;;;;;1.10;0.90;;;21.90;48.50;;;;;;5094766;28;20487;-85
2022/04/01 05:50:00;;;;;;;1.13;1.03;;;21.90;48.50;;;;;;5094593;28;20474;-85
2022/04/01 05:52:27;;;;;;;1.20;1.10;;;21.90;48.50;;;;;;5094719;28;20515;-86
2022/04/01 05:54:57;;;;;;;1.10;1.00;;;21.90;48.50;;;;;;5094473;28;20470;-88
2022/04/01 05:57:24;;;;;;;1.03;0.90;;;21.90;48.50;;;;;;5094967;28;20441;-89
2022/04/01 05:59:51;;;;;;;1.10;1.00;;;21.80;48.40;;;;;;5094429;28;20451;-89
2022/04/01 06:02:57;;;;;;;1.30;1.00;;;21.80;48.40;;;;;;5095410;28;20448;-92
2022/04/01 06:05:29;;;;;;;2.33;1.10;;;21.90;48.50;;;;;;5087514;28;20977;-91
2022/04/01 06:08:06;;;;;;;1.73;1.17;;;21.80;48.50;;;;;;5094595;28;20926;-91
2022/04/01 06:10:42;;;;;;;1.20;1.10;;;21.90;48.60;;;;;;5094280;28;20454;-86
2022/04/01 06:17:02;;;;;;;1.33;1.17;;;21.90;48.60;;;;;;5090500;28;20451;-92
2022/04/01 06:19:35;;;;;;;1.33;1.20;;;21.80;48.90;;;;;;5054505;28;20548;-91
2022/04/01 06:22:05;;;;;;;1.20;1.00;;;21.80;48.70;;;;;;5053718;28;20720;-92
2022/04/01 06:24:39;;;;;;;1.83;1.50;;;21.80;48.70;;;;;;5053582;28;20478;-92
2022/04/01 06:27:09;;;;;;;1.73;1.63;;;21.80;48.80;;;;;;5053779;28;20438;-90
2022/04/01 06:29:38;;;;;;;1.83;1.67;;;21.80;49.00;;;;;;5053799;28;20932;-89
2022/04/01 06:32:08;;;;;;;1.90;1.70;;;21.80;49.10;;;;;;5053875;28;20920;-88
2022/04/01 06:35:00;;;;;;;1.80;1.67;;;21.80;49.10;;;;;;5053750;28;20529;-87
2022/04/01 06:37:33;;;;;;;3.70;1.60;;;21.90;49.20;;;;;;5053878;28;20430;-87
2022/04/01 06:40:05;;;;;;;2.43;1.90;;;21.80;49.10;;;;;;5053739;28;20438;-88
2022/04/01 06:42:34;;;;;;;2.87;1.67;;;21.80;49.10;;;;;;5053564;28;20441;-87
2022/04/01 06:45:01;;;;;;;4.33;1.93;;;21.80;49.20;;;;;;5055698;28;20995;-88
2022/04/01 06:47:27;;;;;;;1.80;1.70;;;21.80;49.20;;;;;;5060130;28;20442;-87
2022/04/01 06:49:54;;;;;;;8.80;2.00;;;21.80;49.20;;;;;;5059545;28;20484;-87
2022/04/01 06:52:21;;;;;;;1.70;1.30;;;21.80;49.20;;;;;;5064244;28;20449;-90
2022/04/01 06:54:50;;;;;;;1.50;1.23;;;21.80;49.20;;;;;;5053411;28;20455;-89
2022/04/01 06:57:16;;;;;;;2.00;1.80;;;21.80;49.30;;;;;;5053534;28;20517;-86
2022/04/01 06:59:44;;;;;;;2.17;1.50;;;21.80;49.40;;;;;;5053362;28;20950;-90
2022/04/01 07:02:11;;;;;;;2.00;1.60;;;21.80;49.30;;;;;;5054049;28;20473;-87
2022/04/01 07:04:38;;;;;;;1.83;1.57;;;21.90;49.40;;;;;;5053441;28;20461;-88
2022/04/01 07:07:05;;;;;;;2.50;1.70;;;21.80;49.30;;;;;;5051136;28;20947;-88
2022/04/01 07:09:32;;;;;;;4.23;1.67;;;22.00;49.40;;;;;;5048137;28;20448;-87
2022/04/01 07:12:01;;;;;;;1.40;1.23;;;21.80;49.30;;;;;;5053231;28;20450;-87
2022/04/01 07:14:28;;;;;;;1.70;1.40;;;21.90;49.50;;;;;;5044035;28;20465;-87
2022/04/01 07:16:55;;;;;;;1.53;1.43;;;21.80;49.40;;;;;;5053638;28;20498;-88
2022/04/01 07:19:22;;;;;;;2.40;1.60;;;21.80;49.40;;;;;;5071295;28;20843;-87
2022/04/01 07:21:49;;;;;;;2.47;1.60;;;21.80;49.30;;;;;;5055222;28;20436;-85
2022/04/01 07:24:17;;;;;;;1.53;1.43;;;21.80;49.20;;;;;;5053361;28;20508;-86
2022/04/01 07:26:44;;;;;;;2.03;1.83;;;21.80;49.20;;;;;;5045952;28;20904;-89
2022/04/01 07:29:13;;;;;;;1.73;1.30;;;21.80;49.20;;;;;;5075174;28;20444;-88
2022/04/01 07:34:31;;;;;;;1.90;1.40;;;21.80;49.20;;;;;;5093156;28;20786;-90
2022/04/01 07:36:58;;;;;;;2.33;1.73;;;21.80;49.30;;;;;;5092690;28;20444;-88
2022/04/01 07:39:25;;;;;;;1.60;1.50;;;21.80;49.20;;;;;;5092964;28;20439;-88
2022/04/01 07:41:51;;;;;;;1.33;1.23;;;21.80;49.20;;;;;;5092891;28;20451;-89
2022/04/01 07:44:20;;;;;;;1.90;1.70;;;21.80;49.20;;;;;;5092913;28;20436;-90
2022/04/01 07:46:47;;;;;;;2.97;1.67;;;21.90;49.30;;;;;;5092075;28;20444;-88
2022/04/01 07:49:14;;;;;;;2.90;1.50;;;21.80;49.80;;;;;;5092630;28;20478;-88
2022/04/01 07:51:43;;;;;;;3.53;1.77;;;21.80;49.20;;;;;;5092575;28;20485;-91
2022/04/01 07:54:10;;;;;;;2.90;1.50;;;21.90;49.30;;;;;;5092402;28;20483;-89
2022/04/01 07:56:37;;;;;;;2.03;1.47;;;21.80;49.10;;;;;;5094348;28;20450;-88
2022/04/01 07:59:04;;;;;;;1.73;1.53;;;21.80;49.10;;;;;;5096563;28;20505;-88
2022/04/01 08:01:32;;;;;;;2.87;1.60;;;21.80;49.10;;;;;;5097232;28;20538;-91
2022/04/01 08:03:59;;;;;;;2.73;1.80;;;21.80;49.10;;;;;;5097043;28;20519;-89
2022/04/01 08:06:26;;;;;;;2.53;1.60;;;21.80;49.10;;;;;;5096773;28;20977;-88
2022/04/01 08:08:55;;;;;;;2.10;1.50;;;21.70;49.00;;;;;;5096832;28;20450;-90
2022/04/01 08:11:22;;;;;;;2.17;1.60;;;21.70;49.00;;;;;;5096712;28;20444;-91
2022/04/01 08:13:49;;;;;;;3.60;1.73;;;21.70;49.00;;;;;;5096591;28;20501;-88
2022/04/01 08:16:16;;;;;;;4.47;1.67;;;21.80;49.00;;;;;;5096459;28;20802;-87
2022/04/01 08:18:44;;;;;;;1.70;1.50;;;21.70;49.00;;;;;;5096750;28;20487;-90
2022/04/01 08:21:11;;;;;;;2.00;1.80;;;21.70;49.00;;;;;;5096523;28;20440;-89
2022/04/01 08:23:38;;;;;;;1.40;1.30;;;21.70;49.00;;;;;;5096543;28;20435;-87
2022/04/01 08:26:06;;;;;;;1.40;1.20;;;21.70;49.00;;;;;;5096276;28;20483;-88
2022/04/01 08:28:35;;;;;;;2.40;1.77;;;21.70;49.00;;;;;;5096467;28;20805;-88
2022/04/01 08:31:03;;;;;;;2.80;1.60;;;21.70;49.00;;;;;;5096221;28;20531;-90
2022/04/01 08:33:29;;;;;;;1.43;1.33;;;21.70;48.90;;;;;;5096088;28;20535;-87
2022/04/01 08:35:58;;;;;;;1.73;1.63;;;21.70;48.90;;;;;;5095777;28;20952;-89
2022/04/01 08:38:25;;;;;;;2.30;1.60;;;21.70;48.90;;;;;;5095911;28;20462;-91
2022/04/01 08:40:52;;;;;;;1.90;1.17;;;21.70;49.50;;;;;;5095851;28;20930;-90
2022/04/01 08:43:26;;;;;;;1.70;1.47;;;21.80;48.90;;;;;;5095848;28;20436;-84
2022/04/01 08:45:52;;;;;;;3.13;1.50;;;21.70;48.90;;;;;;5096272;28;20480;-94
2022/04/01 08:48:19;;;;;;;1.67;1.57;;;21.70;48.90;;;;;;5095627;28;20464;-92
2022/04/01 08:50:46;;;;;;;2.30;1.80;;;21.70;48.90;;;;;;5096005;28;20440;-84
2022/04/01 08:53:14;;;;;;;1.83;1.73;;;21.70;48.90;;;;;;5096165;28;20444;-83
2022/04/01 08:55:46;;;;;;;2.67;1.70;;;21.80;48.90;;;;;;5096066;28;20934;-94
2022/04/01 08:58:12;;;;;;;1.83;1.73;;;21.70;48.90;;;;;;5095815;28;20444;-84
2022/04/01 09:00:39;;;;;;;1.93;1.67;;;21.70;48.90;;;;;;5095672;28;20436;-84
2022/04/01 09:03:09;;;;;;;2.00;1.77;;;21.60;48.90;;;;;;5095828;28;20458;-84
2022/04/01 09:05:36;;;;;;;1.73;1.43;;;21.70;48.90;;;;;;5096331;28;20474;-84
2022/04/01 09:08:05;;;;;;;2.80;1.77;;;21.70;48.90;;;;;;5095595;28;20447;-94
2022/04/01 09:10:50;;;;;;;2.90;1.60;;;21.70;48.80;;;;;;5095931;28;20448;-94
2022/04/01 09:13:17;;;;;;;1.60;1.37;;;21.70;48.80;;;;;;5095760;28;20432;-94
2022/04/01 09:15:45;;;;;;;2.17;1.60;;;21.80;49.00;;;;;;5095338;28;20462;-93
2022/04/01 09:18:12;;;;;;;1.87;1.43;;;21.60;48.80;;;;;;5095111;28;20830;-92
2022/04/01 09:20:48;;;;;;;2.90;1.90;;;21.60;48.80;;;;;;5095490;28;20462;-83
2022/04/01 09:23:22;;;;;;;2.53;1.50;;;21.60;48.80;;;;;;5095666;28;20522;-83
2022/04/01 09:25:52;;;;;;;2.77;1.80;;;21.60;48.90;;;;;;5095876;28;20866;-95
2022/04/01 09:28:26;;;;;;;2.03;1.53;;;21.60;48.90;;;;;;5095612;28;20442;-93
2022/04/01 09:31:02;;;;;;;1.50;1.30;;;21.70;48.90;;;;;;5095409;28;20922;-92
2022/04/01 09:33:46;;;;;;;1.40;1.30;;;21.60;48.80;;;;;;5095353;28;20444;-95
2022/04/01 09:36:14;;;;;;;2.07;1.30;;;21.60;48.80;;;;;;5094953;28;20435;-93
2022/04/01 09:38:55;;;;;;;2.23;1.30;;;21.60;48.80;;;;;;5095031;28;20458;-83
2022/04/01 09:41:29;;;;;;;1.50;1.37;;;21.60;48.80;;;;;;5094987;28;20443;-94
2022/04/01 09:44:02;;;;;;;1.63;1.53;;;21.60;48.80;;;;;;5095386;28;20443;-94
2022/04/01 09:46:29;;;;;;;1.60;1.50;;;21.60;48.80;;;;;;5095079;28;20487;-93
2022/04/01 09:48:57;;;;;;;2.17;1.37;;;21.50;48.70;;;;;;5095336;28;20468;-94
2022/04/01 09:51:24;;;;;;;2.17;1.20;;;21.60;48.80;;;;;;5095683;28;20796;-94
2022/04/01 09:53:53;;;;;;;3.00;1.20;;;21.50;48.70;;;;;;5095191;28;20930;-94
2022/04/01 09:56:19;;;;;;;2.00;1.90;;;21.60;48.70;;;;;;5095243;28;20505;-94
2022/04/01 09:58:48;;;;;;;3.00;1.10;;;21.50;48.60;;;;;;5095032;28;20444;-94
2022/04/01 10:01:15;;;;;;;1.80;1.30;;;21.50;48.60;;;;;;5094861;28;20443;-93
2022/04/01 10:03:42;;;;;;;1.90;1.60;;;21.50;48.60;;;;;;5095014;28;20424;-83
2022/04/01 10:06:10;;;;;;;1.20;1.10;;;21.60;48.60;;;;;;5094818;28;20486;-93
2022/04/01 10:08:38;;;;;;;1.90;1.27;;;21.60;48.70;;;;;;5094737;28;20436;-92
2022/04/01 10:11:05;;;;;;;2.60;1.50;;;21.60;48.70;;;;;;5095055;28;20444;-94
2022/04/01 10:13:35;;;;;;;2.70;1.67;;;21.50;48.60;;;;;;5097263;28;20436;-83
2022/04/01 10:16:08;;;;;;;1.50;1.20;;;21.60;48.60;;;;;;5094682;28;20927;-92
2022/04/01 10:18:36;;;;;;;2.17;1.17;;;21.60;48.60;;;;;;5093556;28;20479;-83
2022/04/01 10:21:04;;;;;;;1.23;1.00;;;21.60;48.60;;;;;;5094256;28;20440;-94
2022/04/01 10:23:34;;;;;;;1.50;1.23;;;21.60;48.60;;;;;;5094287;28;20461;-94
2022/04/01 10:26:05;;;;;;;1.47;1.37;;;21.60;48.60;;;;;;5094061;28;20472;-94
2022/04/01 10:28:32;;;;;;;2.30;1.70;;;21.60;48.60;;;;;;5094131;28;20440;-94
2022/04/01 10:31:01;;;;;;;1.60;1.43;;;21.60;48.60;;;;;;5094267;28;20528;-93
2022/04/01 10:33:33;;;;;;;1.40;1.23;;;21.50;48.50;;;;;;5094127;28;20459;-84
2022/04/01 10:36:00;;;;;;;1.27;1.00;;;21.60;48.60;;;;;;5093970;28;20442;-90
2022/04/01 10:38:29;;;;;;;1.50;1.40;;;21.50;48.50;;;;;;5094361;28;20444;-88
2022/04/01 10:41:09;;;;;;;1.50;1.40;;;21.60;48.60;;;;;;5094861;28;20460;-92
2022/04/01 10:43:40;;;;;;;2.47;1.20;;;21.60;48.60;;;;;;5094076;28;20754;-94
2022/04/01 10:46:08;;;;;;;1.57;1.20;;;21.60;48.60;;;;;;5094082;28;20472;-94
2022/04/01 10:51:38;;;;;;;2.27;1.40;;;21.60;48.60;;;;;;5094319;28;20415;-94
2022/04/01 10:54:43;;;;;;;1.47;1.20;;;21.50;48.50;;;;;;5094691;28;20535;-94
2022/04/01 10:57:11;;;;;;;1.50;1.40;;;21.50;48.50;;;;;;5094054;28;20428;-94
2022/04/01 10:59:42;;;;;;;3.67;1.20;;;21.50;48.60;;;;;;5094371;28;20448;-83
2022/04/01 11:02:12;;;;;;;1.30;1.10;;;21.50;48.50;;;;;;5094070;28;20448;-93
2022/04/01 11:04:43;;;;;;;1.90;1.27;;;21.50;48.50;;;;;;5094055;28;20429;-93
2022/04/01 11:07:12;;;;;;;1.60;1.50;;;21.50;48.50;;;;;;5093876;28;20973;-94
2022/04/01 11:09:41;;;;;;;1.20;1.10;;;21.50;48.60;;;;;;5093880;28;20930;-93
2022/04/01 11:12:27;;;;;;;1.30;1.20;;;21.50;48.50;;;;;;5094014;28;20440;-94
2022/04/01 11:15:19;;;;;;;1.37;1.20;;;21.50;48.40;;;;;;5093842;28;20448;-94
2022/04/01 11:18:16;;;;;;;1.77;1.40;;;21.50;48.40;;;;;;5093714;28;20518;-94
2022/04/01 11:20:57;;;;;;;1.63;1.20;;;21.70;48.70;;;;;;5093942;28;20443;-94
2022/04/01 11:23:24;;;;;;;1.43;1.20;;;21.50;48.50;;;;;;5094175;28;20784;-93
2022/04/01 11:25:58;;;;;;;1.10;1.00;;;21.60;48.60;;;;;;5093829;28;20481;-95
2022/04/01 11:28:29;;;;;;;1.33;1.23;;;21.50;48.50;;;;;;5093650;28;20523;-94
2022/04/01 11:31:17;;;;;;;1.30;1.10;;;21.50;48.50;;;;;;5096558;28;20428;-94
2022/04/01 11:34:00;;;;;;;1.67;1.10;;;21.50;48.50;;;;;;5085925;28;20473;-93
2022/04/01 11:36:29;;;;;;;1.30;1.20;;;21.50;48.50;;;;;;5097811;28;20435;-84
2022/04/01 11:38:56;;;;;;;1.73;1.17;;;21.50;48.60;;;;;;5097376;28;20530;-94
2022/04/01 11:41:23;;;;;;;1.50;1.10;;;21.50;49.10;;;;;;5097617;28;20444;-94
2022/04/01 11:43:50;;;;;;;1.73;1.20;;;21.50;48.50;;;;;;5097518;28;20440;-93
2022/04/01 11:46:17;;;;;;;1.60;1.43;;;21.50;48.50;;;;;;5097492;28;20520;-92
2022/04/01 11:48:45;;;;;;;1.90;1.03;;;21.50;48.50;;;;;;5097116;28;20463;-94
2022/04/01 11:51:15;;;;;;;1.50;1.30;;;21.50;48.50;;;;;;5097289;28;20508;-94
2022/04/01 11:53:49;;;;;;;2.40;1.50;;;21.50;48.50;;;;;;5097598;28;20497;-94
2022/04/01 11:56:16;;;;;;;1.73;1.23;;;21.50;48.50;;;;;;5098188;28;20922;-93
2022/04/01 11:59:08;;;;;;;2.40;1.30;;;21.50;48.40;;;;;;5097219;28;20800;-94
2022/04/01 12:01:54;;;;;;;1.73;1.50;;;21.50;48.40;;;;;;5077923;28;20443;-94
2022/04/01 12:04:28;;;;;;;1.60;1.27;;;21.50;48.50;;;;;;5097238;28;20472;-93
2022/04/01 12:09:43;;;;;;;1.43;1.33;;;21.50;48.50;;;;;;5097028;28;20423;-94
2022/04/01 12:12:10;;;;;;;1.20;1.10;;;21.50;48.50;;;;;;5096790;28;20930;-93
2022/04/01 12:14:39;;;;;;;1.10;1.00;;;21.50;48.50;;;;;;5096540;28;20817;-93
2022/04/01 12:17:07;;;;;;;1.17;1.07;;;21.50;48.40;;;;;;5096145;28;20537;-85
2022/04/01 12:19:34;;;;;;;1.77;1.00;;;21.50;48.50;;;;;;5095918;28;20823;-83
2022/04/01 12:22:02;;;;;;;1.30;1.00;;;21.50;48.50;;;;;;5078552;28;20439;-92
2022/04/01 12:24:29;;;;;;;1.63;1.00;;;21.50;48.50;;;;;;5096829;28;20431;-91
2022/04/01 12:26:59;;;;;;;1.50;1.30;;;21.50;48.50;;;;;;5096522;28;20491;-93
2022/04/01 12:29:27;;;;;;;1.50;1.27;;;21.50;48.50;;;;;;5096223;28;20482;-92
2022/04/01 12:31:56;;;;;;;1.57;1.20;;;21.50;48.50;;;;;;5096114;28;20489;-92
2022/04/01 12:34:24;;;;;;;1.13;1.00;;;21.50;48.50;;;;;;5096272;28;20930;-92
2022/04/01 12:36:56;;;;;;;1.30;1.20;;;21.50;48.50;;;;;;5096368;28;20926;-90
2022/04/01 12:39:23;;;;;;;1.27;1.07;;;21.50;49.10;;;;;;5096422;28;20440;-92
2022/04/01 12:41:52;;;;;;;1.43;1.23;;;21.50;48.50;;;;;;5095726;28;20467;-93
2022/04/01 12:44:24;;;;;;;1.20;1.10;;;21.50;48.50;;;;;;5096186;28;20930;-92
2022/04/01 12:46:52;;;;;;;1.20;1.10;;;21.50;48.40;;;;;;5096588;28;20537;-93
2022/04/01 12:49:20;;;;;;;1.17;0.97;;;21.50;48.50;;;;;;5095747;28;20471;-88
2022/04/01 12:51:55;;;;;;;1.40;1.20;;;21.50;48.50;;;;;;5096047;28;20799;-89
2022/04/01 12:54:33;;;;;;;1.30;1.13;;;21.50;48.40;;;;;;5096098;28;20470;-93
2022/04/01 12:57:05;;;;;;;1.30;1.10;;;21.50;48.40;;;;;;5095604;28;20440;-93
2022/04/01 12:59:37;;;;;;;1.30;1.20;;;21.50;48.40;;;;;;5095965;28;20497;-93
2022/04/01 13:02:06;;;;;;;1.70;1.00;;;21.50;48.40;;;;;;5096039;28;20431;-93
2022/04/01 13:04:40;;;;;;;1.27;1.17;;;21.50;48.50;;;;;;5095906;28;20436;-93
2022/04/01 13:07:10;;;;;;;1.30;1.20;;;21.50;48.40;;;;;;5095598;28;20529;-93
2022/04/01 13:09:53;;;;;;;1.30;1.10;;;21.40;48.40;;;;;;5095870;28;20493;-93
2022/04/01 13:12:22;;;;;;;1.20;1.10;;;21.50;48.50;;;;;;5095804;28;20436;-92
2022/04/01 13:14:58;;;;;;;1.20;1.10;;;21.40;48.40;;;;;;5095382;28;20432;-91
2022/04/01 13:17:26;;;;;;;1.40;1.10;;;21.50;48.50;;;;;;5095377;28;20471;-92
2022/04/01 13:19:53;;;;;;;1.23;1.13;;;21.40;48.40;;;;;;5095584;28;20495;-91